sensor_id;sensor_type;location;lat;lon;timestamp;P1;durP1;ratioP1;P2;durP2;ratioP2
34369;SDS011;20635;55.812;37.560;2023-08-06T00:00:21;7.18;;;5.85;;
34369;SDS011;20635;55.812;37.560;2023-08-06T00:02:47;6.82;;;5.30;;
34369;SDS011;20635;55.812;37.560;2023-08-06T00:05:14;8.02;;;6.10;;
34369;SDS011;20635;55.812;37.560;2023-08-06T00:07:49;8.90;;;5.82;;
34369;SDS011;20635;55.812;37.560;2023-08-06T00:10:16;6.72;;;5.75;;
34369;SDS011;20635;55.812;37.560;2023-08-06T00:12:42;6.43;;;5.20;;
34369;SDS011;20635;55.812;37.560;2023-08-06T00:15:11;7.82;;;5.80;;
34369;SDS011;20635;55.812;37.560;2023-08-06T00:17:37;9.07;;;5.50;;
34369;SDS011;20635;55.812;37.560;2023-08-06T00:20:04;7.63;;;5.63;;
34369;SDS011;20635;55.812;37.560;2023-08-06T00:22:37;7.25;;;5.80;;
34369;SDS011;20635;55.812;37.560;2023-08-06T00:25:03;6.40;;;4.93;;
34369;SDS011;20635;55.812;37.560;2023-08-06T00:27:30;7.53;;;5.30;;
34369;SDS011;20635;55.812;37.560;2023-08-06T00:29:57;5.03;;;4.53;;
34369;SDS011;20635;55.812;37.560;2023-08-06T00:32:24;5.63;;;4.85;;
34369;SDS011;20635;55.812;37.560;2023-08-06T00:34:50;8.60;;;6.03;;
34369;SDS011;20635;55.812;37.560;2023-08-06T00:37:19;9.57;;;7.50;;
34369;SDS011;20635;55.812;37.560;2023-08-06T00:39:44;7.72;;;7.00;;
34369;SDS011;20635;55.812;37.560;2023-08-06T00:42:11;8.90;;;7.07;;
34369;SDS011;20635;55.812;37.560;2023-08-06T00:44:37;8.80;;;6.63;;
34369;SDS011;20635;55.812;37.560;2023-08-06T00:47:04;6.60;;;6.00;;
34369;SDS011;20635;55.812;37.560;2023-08-06T00:49:31;7.32;;;5.47;;
34369;SDS011;20635;55.812;37.560;2023-08-06T00:51:57;6.82;;;5.45;;
34369;SDS011;20635;55.812;37.560;2023-08-06T00:54:24;7.43;;;5.13;;
34369;SDS011;20635;55.812;37.560;2023-08-06T00:56:50;5.72;;;4.60;;
34369;SDS011;20635;55.812;37.560;2023-08-06T00:59:16;5.88;;;4.65;;
34369;SDS011;20635;55.812;37.560;2023-08-06T01:01:42;7.45;;;4.80;;
34369;SDS011;20635;55.812;37.560;2023-08-06T01:04:09;7.47;;;5.40;;
34369;SDS011;20635;55.812;37.560;2023-08-06T01:09:28;5.53;;;4.57;;
34369;SDS011;20635;55.812;37.560;2023-08-06T01:12:09;5.55;;;4.70;;
34369;SDS011;20635;55.812;37.560;2023-08-06T01:14:47;5.90;;;4.68;;
34369;SDS011;20635;55.812;37.560;2023-08-06T01:17:19;7.80;;;4.82;;
34369;SDS011;20635;55.812;37.560;2023-08-06T01:19:46;5.85;;;4.45;;
34369;SDS011;20635;55.812;37.560;2023-08-06T01:22:11;5.30;;;4.43;;
34369;SDS011;20635;55.812;37.560;2023-08-06T01:24:37;7.28;;;5.00;;
34369;SDS011;20635;55.812;37.560;2023-08-06T01:27:04;7.47;;;4.65;;
34369;SDS011;20635;55.812;37.560;2023-08-06T01:29:41;7.25;;;4.55;;
34369;SDS011;20635;55.812;37.560;2023-08-06T01:32:10;6.15;;;4.95;;
34369;SDS011;20635;55.812;37.560;2023-08-06T01:34:39;6.32;;;4.22;;
34369;SDS011;20635;55.812;37.560;2023-08-06T01:37:07;5.97;;;4.53;;
34369;SDS011;20635;55.812;37.560;2023-08-06T01:39:34;5.78;;;4.95;;
34369;SDS011;20635;55.812;37.560;2023-08-06T01:42:02;6.63;;;4.88;;
34369;SDS011;20635;55.812;37.560;2023-08-06T01:44:29;6.63;;;5.03;;
34369;SDS011;20635;55.812;37.560;2023-08-06T01:46:55;5.18;;;4.68;;
34369;SDS011;20635;55.812;37.560;2023-08-06T01:49:20;8.40;;;5.07;;
34369;SDS011;20635;55.812;37.560;2023-08-06T01:51:46;7.70;;;4.82;;
34369;SDS011;20635;55.812;37.560;2023-08-06T01:54:12;7.28;;;5.40;;
34369;SDS011;20635;55.812;37.560;2023-08-06T01:56:38;8.15;;;6.90;;
34369;SDS011;20635;55.812;37.560;2023-08-06T01:59:03;11.43;;;8.70;;
34369;SDS011;20635;55.812;37.560;2023-08-06T02:01:29;9.05;;;8.18;;
34369;SDS011;20635;55.812;37.560;2023-08-06T02:03:55;8.20;;;7.40;;
34369;SDS011;20635;55.812;37.560;2023-08-06T02:06:21;8.40;;;7.35;;
34369;SDS011;20635;55.812;37.560;2023-08-06T02:08:47;8.73;;;6.25;;
34369;SDS011;20635;55.812;37.560;2023-08-06T02:11:14;6.28;;;5.68;;
34369;SDS011;20635;55.812;37.560;2023-08-06T02:13:40;8.80;;;6.40;;
34369;SDS011;20635;55.812;37.560;2023-08-06T02:16:07;8.88;;;5.40;;
34369;SDS011;20635;55.812;37.560;2023-08-06T02:18:35;6.95;;;5.85;;
34369;SDS011;20635;55.812;37.560;2023-08-06T02:21:01;5.85;;;5.13;;
34369;SDS011;20635;55.812;37.560;2023-08-06T02:23:28;6.90;;;5.05;;
34369;SDS011;20635;55.812;37.560;2023-08-06T02:26:00;7.72;;;5.55;;
34369;SDS011;20635;55.812;37.560;2023-08-06T02:28:27;7.03;;;4.82;;
34369;SDS011;20635;55.812;37.560;2023-08-06T02:30:54;8.48;;;5.70;;
34369;SDS011;20635;55.812;37.560;2023-08-06T02:33:19;7.53;;;5.85;;
34369;SDS011;20635;55.812;37.560;2023-08-06T02:35:45;6.60;;;5.88;;
34369;SDS011;20635;55.812;37.560;2023-08-06T02:38:11;8.27;;;6.22;;
34369;SDS011;20635;55.812;37.560;2023-08-06T02:40:42;6.55;;;5.55;;
34369;SDS011;20635;55.812;37.560;2023-08-06T02:43:09;8.45;;;5.28;;
34369;SDS011;20635;55.812;37.560;2023-08-06T02:45:35;8.45;;;5.22;;
34369;SDS011;20635;55.812;37.560;2023-08-06T02:48:01;5.75;;;5.13;;
34369;SDS011;20635;55.812;37.560;2023-08-06T02:50:28;6.95;;;5.00;;
34369;SDS011;20635;55.812;37.560;2023-08-06T02:52:54;6.65;;;5.38;;
34369;SDS011;20635;55.812;37.560;2023-08-06T02:55:19;8.57;;;5.18;;
34369;SDS011;20635;55.812;37.560;2023-08-06T02:57:47;8.57;;;5.40;;
34369;SDS011;20635;55.812;37.560;2023-08-06T03:00:14;8.35;;;5.43;;
34369;SDS011;20635;55.812;37.560;2023-08-06T03:02:41;9.90;;;5.10;;
34369;SDS011;20635;55.812;37.560;2023-08-06T03:05:20;8.48;;;5.07;;
34369;SDS011;20635;55.812;37.560;2023-08-06T03:07:47;6.07;;;4.63;;
34369;SDS011;20635;55.812;37.560;2023-08-06T03:10:21;5.93;;;5.32;;
34369;SDS011;20635;55.812;37.560;2023-08-06T03:12:49;8.07;;;5.43;;
34369;SDS011;20635;55.812;37.560;2023-08-06T03:15:16;8.52;;;4.93;;
34369;SDS011;20635;55.812;37.560;2023-08-06T03:17:44;8.65;;;5.13;;
34369;SDS011;20635;55.812;37.560;2023-08-06T03:20:10;8.75;;;4.72;;
34369;SDS011;20635;55.812;37.560;2023-08-06T03:22:37;7.70;;;4.72;;
34369;SDS011;20635;55.812;37.560;2023-08-06T03:25:03;5.55;;;4.93;;
34369;SDS011;20635;55.812;37.560;2023-08-06T03:27:29;6.75;;;5.13;;
34369;SDS011;20635;55.812;37.560;2023-08-06T03:29:55;8.45;;;5.00;;
34369;SDS011;20635;55.812;37.560;2023-08-06T03:32:24;6.85;;;4.97;;
34369;SDS011;20635;55.812;37.560;2023-08-06T03:34:52;5.10;;;4.60;;
34369;SDS011;20635;55.812;37.560;2023-08-06T03:37:19;7.60;;;6.15;;
34369;SDS011;20635;55.812;37.560;2023-08-06T03:39:44;7.88;;;6.85;;
34369;SDS011;20635;55.812;37.560;2023-08-06T03:42:10;8.02;;;7.10;;
34369;SDS011;20635;55.812;37.560;2023-08-06T03:44:36;7.75;;;5.97;;
34369;SDS011;20635;55.812;37.560;2023-08-06T03:47:02;9.75;;;6.18;;
34369;SDS011;20635;55.812;37.560;2023-08-06T03:49:28;7.40;;;5.82;;
34369;SDS011;20635;55.812;37.560;2023-08-06T03:51:54;7.57;;;5.32;;
34369;SDS011;20635;55.812;37.560;2023-08-06T03:54:20;7.03;;;5.07;;
34369;SDS011;20635;55.812;37.560;2023-08-06T03:56:46;7.75;;;5.55;;
34369;SDS011;20635;55.812;37.560;2023-08-06T03:59:12;8.75;;;5.38;;
34369;SDS011;20635;55.812;37.560;2023-08-06T04:01:39;6.18;;;4.80;;
34369;SDS011;20635;55.812;37.560;2023-08-06T04:04:04;5.43;;;4.78;;
34369;SDS011;20635;55.812;37.560;2023-08-06T04:06:30;10.40;;;5.50;;
34369;SDS011;20635;55.812;37.560;2023-08-06T04:08:56;7.93;;;5.22;;
34369;SDS011;20635;55.812;37.560;2023-08-06T04:11:22;6.68;;;5.18;;
34369;SDS011;20635;55.812;37.560;2023-08-06T04:13:47;8.05;;;5.22;;
34369;SDS011;20635;55.812;37.560;2023-08-06T04:16:13;7.28;;;5.20;;
34369;SDS011;20635;55.812;37.560;2023-08-06T04:18:40;6.88;;;4.80;;
34369;SDS011;20635;55.812;37.560;2023-08-06T04:21:06;8.68;;;4.93;;
34369;SDS011;20635;55.812;37.560;2023-08-06T04:23:32;15.65;;;5.05;;
34369;SDS011;20635;55.812;37.560;2023-08-06T04:26:02;12.02;;;4.97;;
34369;SDS011;20635;55.812;37.560;2023-08-06T04:28:32;6.70;;;4.82;;
34369;SDS011;20635;55.812;37.560;2023-08-06T04:30:58;8.68;;;4.97;;
34369;SDS011;20635;55.812;37.560;2023-08-06T04:33:25;6.22;;;4.70;;
34369;SDS011;20635;55.812;37.560;2023-08-06T04:35:54;8.20;;;4.97;;
34369;SDS011;20635;55.812;37.560;2023-08-06T04:38:25;8.32;;;4.53;;
34369;SDS011;20635;55.812;37.560;2023-08-06T04:40:52;9.55;;;5.32;;
34369;SDS011;20635;55.812;37.560;2023-08-06T04:43:19;8.75;;;5.55;;
34369;SDS011;20635;55.812;37.560;2023-08-06T04:45:46;8.13;;;5.47;;
34369;SDS011;20635;55.812;37.560;2023-08-06T04:48:15;8.68;;;6.07;;
34369;SDS011;20635;55.812;37.560;2023-08-06T04:50:45;8.18;;;6.50;;
34369;SDS011;20635;55.812;37.560;2023-08-06T04:53:11;10.98;;;6.28;;
34369;SDS011;20635;55.812;37.560;2023-08-06T04:55:37;9.15;;;5.72;;
34369;SDS011;20635;55.812;37.560;2023-08-06T04:58:03;6.60;;;5.85;;
34369;SDS011;20635;55.812;37.560;2023-08-06T05:00:29;9.15;;;5.85;;
34369;SDS011;20635;55.812;37.560;2023-08-06T05:02:55;7.22;;;5.18;;
34369;SDS011;20635;55.812;37.560;2023-08-06T05:05:21;8.45;;;5.43;;
34369;SDS011;20635;55.812;37.560;2023-08-06T05:07:50;8.13;;;5.68;;
34369;SDS011;20635;55.812;37.560;2023-08-06T05:10:16;7.97;;;5.03;;
34369;SDS011;20635;55.812;37.560;2023-08-06T05:12:42;7.25;;;5.32;;
34369;SDS011;20635;55.812;37.560;2023-08-06T05:15:07;7.97;;;5.90;;
34369;SDS011;20635;55.812;37.560;2023-08-06T05:17:33;8.35;;;4.78;;
34369;SDS011;20635;55.812;37.560;2023-08-06T05:19:59;6.93;;;4.70;;
34369;SDS011;20635;55.812;37.560;2023-08-06T05:22:25;5.90;;;4.55;;
34369;SDS011;20635;55.812;37.560;2023-08-06T05:24:51;10.57;;;5.03;;
34369;SDS011;20635;55.812;37.560;2023-08-06T05:27:17;8.60;;;4.90;;
34369;SDS011;20635;55.812;37.560;2023-08-06T05:29:44;7.70;;;5.00;;
34369;SDS011;20635;55.812;37.560;2023-08-06T05:32:10;6.72;;;4.97;;
34369;SDS011;20635;55.812;37.560;2023-08-06T05:34:36;7.65;;;4.80;;
34369;SDS011;20635;55.812;37.560;2023-08-06T05:37:03;6.05;;;4.72;;
34369;SDS011;20635;55.812;37.560;2023-08-06T05:39:29;6.38;;;4.80;;
34369;SDS011;20635;55.812;37.560;2023-08-06T05:41:54;9.10;;;5.43;;
34369;SDS011;20635;55.812;37.560;2023-08-06T05:44:21;4.85;;;4.22;;
34369;SDS011;20635;55.812;37.560;2023-08-06T05:46:47;6.63;;;4.50;;
34369;SDS011;20635;55.812;37.560;2023-08-06T05:49:12;6.60;;;4.85;;
34369;SDS011;20635;55.812;37.560;2023-08-06T05:51:39;7.90;;;4.75;;
34369;SDS011;20635;55.812;37.560;2023-08-06T05:54:05;5.32;;;4.75;;
34369;SDS011;20635;55.812;37.560;2023-08-06T05:56:31;6.15;;;4.63;;
34369;SDS011;20635;55.812;37.560;2023-08-06T05:58:56;8.02;;;4.43;;
34369;SDS011;20635;55.812;37.560;2023-08-06T06:01:22;5.50;;;4.40;;
34369;SDS011;20635;55.812;37.560;2023-08-06T06:03:48;6.35;;;4.80;;
34369;SDS011;20635;55.812;37.560;2023-08-06T06:06:14;8.85;;;4.60;;
34369;SDS011;20635;55.812;37.560;2023-08-06T06:08:41;6.25;;;4.40;;
34369;SDS011;20635;55.812;37.560;2023-08-06T06:11:07;6.32;;;4.78;;
34369;SDS011;20635;55.812;37.560;2023-08-06T06:13:33;6.57;;;4.40;;
34369;SDS011;20635;55.812;37.560;2023-08-06T06:15:59;4.95;;;4.45;;
34369;SDS011;20635;55.812;37.560;2023-08-06T06:18:25;5.88;;;4.10;;
34369;SDS011;20635;55.812;37.560;2023-08-06T06:20:50;5.30;;;4.00;;
34369;SDS011;20635;55.812;37.560;2023-08-06T06:23:16;6.22;;;4.72;;
34369;SDS011;20635;55.812;37.560;2023-08-06T06:25:51;6.70;;;4.32;;
34369;SDS011;20635;55.812;37.560;2023-08-06T06:28:17;7.10;;;4.90;;
34369;SDS011;20635;55.812;37.560;2023-08-06T06:30:43;5.63;;;4.30;;
34369;SDS011;20635;55.812;37.560;2023-08-06T06:33:09;7.35;;;4.35;;
34369;SDS011;20635;55.812;37.560;2023-08-06T06:35:35;7.95;;;4.80;;
34369;SDS011;20635;55.812;37.560;2023-08-06T06:38:02;4.78;;;3.83;;
34369;SDS011;20635;55.812;37.560;2023-08-06T06:40:28;5.28;;;4.15;;
34369;SDS011;20635;55.812;37.560;2023-08-06T06:42:54;5.78;;;4.20;;
34369;SDS011;20635;55.812;37.560;2023-08-06T06:45:19;4.68;;;4.07;;
34369;SDS011;20635;55.812;37.560;2023-08-06T06:47:45;4.07;;;3.67;;
34369;SDS011;20635;55.812;37.560;2023-08-06T06:50:14;5.53;;;3.63;;
34369;SDS011;20635;55.812;37.560;2023-08-06T06:52:41;6.15;;;4.45;;
34369;SDS011;20635;55.812;37.560;2023-08-06T06:55:07;6.00;;;4.43;;
34369;SDS011;20635;55.812;37.560;2023-08-06T06:57:33;4.20;;;3.80;;
34369;SDS011;20635;55.812;37.560;2023-08-06T06:59:59;5.10;;;4.60;;
34369;SDS011;20635;55.812;37.560;2023-08-06T07:02:25;7.45;;;4.53;;
34369;SDS011;20635;55.812;37.560;2023-08-06T07:04:51;4.80;;;4.15;;
34369;SDS011;20635;55.812;37.560;2023-08-06T07:07:16;5.65;;;4.15;;
34369;SDS011;20635;55.812;37.560;2023-08-06T07:09:42;4.85;;;4.35;;
34369;SDS011;20635;55.812;37.560;2023-08-06T07:12:08;10.98;;;4.30;;
34369;SDS011;20635;55.812;37.560;2023-08-06T07:14:34;6.00;;;4.28;;
34369;SDS011;20635;55.812;37.560;2023-08-06T07:17:00;5.20;;;3.60;;
34369;SDS011;20635;55.812;37.560;2023-08-06T07:19:26;6.35;;;4.03;;
34369;SDS011;20635;55.812;37.560;2023-08-06T07:21:52;4.60;;;3.88;;
34369;SDS011;20635;55.812;37.560;2023-08-06T07:24:17;5.40;;;3.67;;
34369;SDS011;20635;55.812;37.560;2023-08-06T07:26:43;3.83;;;3.47;;
34369;SDS011;20635;55.812;37.560;2023-08-06T07:29:09;3.88;;;3.50;;
34369;SDS011;20635;55.812;37.560;2023-08-06T07:31:35;4.07;;;3.63;;
34369;SDS011;20635;55.812;37.560;2023-08-06T07:34:01;5.47;;;3.78;;
34369;SDS011;20635;55.812;37.560;2023-08-06T07:36:27;4.10;;;3.67;;
34369;SDS011;20635;55.812;37.560;2023-08-06T07:38:53;5.80;;;3.55;;
34369;SDS011;20635;55.812;37.560;2023-08-06T07:41:24;4.05;;;3.30;;
34369;SDS011;20635;55.812;37.560;2023-08-06T07:43:50;4.60;;;3.42;;
34369;SDS011;20635;55.812;37.560;2023-08-06T07:46:16;3.72;;;3.35;;
34369;SDS011;20635;55.812;37.560;2023-08-06T07:48:42;4.07;;;3.70;;
34369;SDS011;20635;55.812;37.560;2023-08-06T07:51:08;3.95;;;3.55;;
34369;SDS011;20635;55.812;37.560;2023-08-06T07:53:34;4.18;;;3.78;;
34369;SDS011;20635;55.812;37.560;2023-08-06T07:55:59;4.20;;;3.80;;
34369;SDS011;20635;55.812;37.560;2023-08-06T07:58:27;5.60;;;3.67;;
34369;SDS011;20635;55.812;37.560;2023-08-06T08:00:55;4.30;;;3.28;;
34369;SDS011;20635;55.812;37.560;2023-08-06T08:03:20;3.65;;;3.17;;
34369;SDS011;20635;55.812;37.560;2023-08-06T08:05:46;4.95;;;3.33;;
34369;SDS011;20635;55.812;37.560;2023-08-06T08:08:12;7.07;;;3.72;;
34369;SDS011;20635;55.812;37.560;2023-08-06T08:10:38;3.97;;;3.67;;
34369;SDS011;20635;55.812;37.560;2023-08-06T08:13:04;5.15;;;3.38;;
34369;SDS011;20635;55.812;37.560;2023-08-06T08:15:31;4.50;;;3.30;;
34369;SDS011;20635;55.812;37.560;2023-08-06T08:17:57;4.35;;;3.17;;
34369;SDS011;20635;55.812;37.560;2023-08-06T08:20:24;5.00;;;3.70;;
34369;SDS011;20635;55.812;37.560;2023-08-06T08:22:50;5.82;;;3.63;;
34369;SDS011;20635;55.812;37.560;2023-08-06T08:25:16;3.50;;;3.20;;
34369;SDS011;20635;55.812;37.560;2023-08-06T08:27:42;4.00;;;3.08;;
34369;SDS011;20635;55.812;37.560;2023-08-06T08:30:08;4.15;;;3.33;;
34369;SDS011;20635;55.812;37.560;2023-08-06T08:32:34;3.60;;;3.30;;
34369;SDS011;20635;55.812;37.560;2023-08-06T08:35:00;4.32;;;3.20;;
34369;SDS011;20635;55.812;37.560;2023-08-06T08:37:25;4.30;;;3.33;;
34369;SDS011;20635;55.812;37.560;2023-08-06T08:39:51;4.07;;;3.50;;
34369;SDS011;20635;55.812;37.560;2023-08-06T08:42:17;3.58;;;3.10;;
34369;SDS011;20635;55.812;37.560;2023-08-06T08:44:44;4.18;;;3.78;;
34369;SDS011;20635;55.812;37.560;2023-08-06T08:47:10;3.45;;;2.90;;
34369;SDS011;20635;55.812;37.560;2023-08-06T08:49:36;4.10;;;3.70;;
34369;SDS011;20635;55.812;37.560;2023-08-06T08:52:03;4.13;;;3.72;;
34369;SDS011;20635;55.812;37.560;2023-08-06T08:54:33;4.40;;;3.60;;
34369;SDS011;20635;55.812;37.560;2023-08-06T08:57:00;3.85;;;3.20;;
34369;SDS011;20635;55.812;37.560;2023-08-06T08:59:27;3.78;;;3.45;;
34369;SDS011;20635;55.812;37.560;2023-08-06T09:01:53;3.50;;;3.10;;
34369;SDS011;20635;55.812;37.560;2023-08-06T09:04:20;3.25;;;2.95;;
34369;SDS011;20635;55.812;37.560;2023-08-06T09:06:50;3.67;;;3.35;;
34369;SDS011;20635;55.812;37.560;2023-08-06T09:09:25;3.50;;;3.15;;
34369;SDS011;20635;55.812;37.560;2023-08-06T09:11:53;3.35;;;3.05;;
34369;SDS011;20635;55.812;37.560;2023-08-06T09:14:26;3.83;;;3.28;;
34369;SDS011;20635;55.812;37.560;2023-08-06T09:16:52;4.38;;;3.15;;
34369;SDS011;20635;55.812;37.560;2023-08-06T09:19:18;3.58;;;3.25;;
34369;SDS011;20635;55.812;37.560;2023-08-06T09:21:44;3.88;;;2.72;;
34369;SDS011;20635;55.812;37.560;2023-08-06T09:24:14;3.35;;;3.05;;
34369;SDS011;20635;55.812;37.560;2023-08-06T09:26:40;3.53;;;3.20;;
34369;SDS011;20635;55.812;37.560;2023-08-06T09:29:09;3.25;;;2.97;;
34369;SDS011;20635;55.812;37.560;2023-08-06T09:31:42;3.28;;;3.00;;
34369;SDS011;20635;55.812;37.560;2023-08-06T09:34:20;3.53;;;3.22;;
34369;SDS011;20635;55.812;37.560;2023-08-06T09:36:48;3.47;;;3.17;;
34369;SDS011;20635;55.812;37.560;2023-08-06T09:39:18;3.22;;;2.92;;
34369;SDS011;20635;55.812;37.560;2023-08-06T09:41:45;3.28;;;2.97;;
34369;SDS011;20635;55.812;37.560;2023-08-06T09:44:15;3.92;;;3.40;;
34369;SDS011;20635;55.812;37.560;2023-08-06T09:46:48;4.72;;;3.13;;
34369;SDS011;20635;55.812;37.560;2023-08-06T09:49:15;3.85;;;2.80;;
34369;SDS011;20635;55.812;37.560;2023-08-06T09:51:43;3.40;;;3.10;;
34369;SDS011;20635;55.812;37.560;2023-08-06T09:54:13;3.45;;;3.15;;
34369;SDS011;20635;55.812;37.560;2023-08-06T09:56:41;3.30;;;3.00;;
34369;SDS011;20635;55.812;37.560;2023-08-06T09:59:08;3.38;;;3.05;;
34369;SDS011;20635;55.812;37.560;2023-08-06T10:01:36;3.78;;;3.47;;
34369;SDS011;20635;55.812;37.560;2023-08-06T10:04:03;3.45;;;3.15;;
34369;SDS011;20635;55.812;37.560;2023-08-06T10:06:32;3.30;;;3.00;;
34369;SDS011;20635;55.812;37.560;2023-08-06T10:09:00;3.25;;;2.95;;
34369;SDS011;20635;55.812;37.560;2023-08-06T10:11:25;3.40;;;3.03;;
34369;SDS011;20635;55.812;37.560;2023-08-06T10:13:55;5.68;;;3.20;;
34369;SDS011;20635;55.812;37.560;2023-08-06T10:16:34;3.15;;;2.85;;
34369;SDS011;20635;55.812;37.560;2023-08-06T10:19:02;3.25;;;2.97;;
34369;SDS011;20635;55.812;37.560;2023-08-06T10:21:31;3.00;;;2.67;;
34369;SDS011;20635;55.812;37.560;2023-08-06T10:23:58;4.20;;;2.90;;
34369;SDS011;20635;55.812;37.560;2023-08-06T10:26:27;3.42;;;3.13;;
34369;SDS011;20635;55.812;37.560;2023-08-06T10:28:53;3.72;;;2.85;;
34369;SDS011;20635;55.812;37.560;2023-08-06T10:31:20;3.60;;;3.30;;
34369;SDS011;20635;55.812;37.560;2023-08-06T10:34:06;3.20;;;2.95;;
34369;SDS011;20635;55.812;37.560;2023-08-06T10:36:33;3.30;;;3.00;;
34369;SDS011;20635;55.812;37.560;2023-08-06T10:38:58;3.58;;;3.25;;
34369;SDS011;20635;55.812;37.560;2023-08-06T10:41:28;2.90;;;2.53;;
34369;SDS011;20635;55.812;37.560;2023-08-06T10:44:07;3.03;;;2.60;;
34369;SDS011;20635;55.812;37.560;2023-08-06T10:46:35;3.55;;;3.25;;
34369;SDS011;20635;55.812;37.560;2023-08-06T10:49:02;3.33;;;3.03;;
34369;SDS011;20635;55.812;37.560;2023-08-06T10:51:28;2.95;;;2.65;;
34369;SDS011;20635;55.812;37.560;2023-08-06T10:53:54;4.88;;;3.15;;
34369;SDS011;20635;55.812;37.560;2023-08-06T10:56:21;3.58;;;2.80;;
34369;SDS011;20635;55.812;37.560;2023-08-06T10:58:49;2.88;;;2.67;;
34369;SDS011;20635;55.812;37.560;2023-08-06T11:01:16;3.00;;;2.78;;
34369;SDS011;20635;55.812;37.560;2023-08-06T11:03:43;3.40;;;3.10;;
34369;SDS011;20635;55.812;37.560;2023-08-06T11:06:10;3.30;;;3.00;;
34369;SDS011;20635;55.812;37.560;2023-08-06T11:08:38;4.15;;;3.15;;
34369;SDS011;20635;55.812;37.560;2023-08-06T11:11:12;3.53;;;3.20;;
34369;SDS011;20635;55.812;37.560;2023-08-06T11:13:41;2.92;;;2.63;;
34369;SDS011;20635;55.812;37.560;2023-08-06T11:16:09;3.10;;;2.80;;
34369;SDS011;20635;55.812;37.560;2023-08-06T11:18:35;3.33;;;3.03;;
34369;SDS011;20635;55.812;37.560;2023-08-06T11:21:01;3.38;;;3.08;;
34369;SDS011;20635;55.812;37.560;2023-08-06T11:23:28;3.20;;;2.90;;
34369;SDS011;20635;55.812;37.560;2023-08-06T11:25:55;3.22;;;3.03;;
34369;SDS011;20635;55.812;37.560;2023-08-06T11:28:22;3.00;;;2.80;;
34369;SDS011;20635;55.812;37.560;2023-08-06T11:30:48;3.05;;;2.75;;
34369;SDS011;20635;55.812;37.560;2023-08-06T11:33:14;3.55;;;2.50;;
34369;SDS011;20635;55.812;37.560;2023-08-06T11:35:47;3.10;;;2.80;;
34369;SDS011;20635;55.812;37.560;2023-08-06T11:38:13;3.58;;;3.17;;
34369;SDS011;20635;55.812;37.560;2023-08-06T11:40:39;3.72;;;2.72;;
34369;SDS011;20635;55.812;37.560;2023-08-06T11:43:05;2.95;;;2.67;;
34369;SDS011;20635;55.812;37.560;2023-08-06T11:45:34;3.28;;;2.97;;
34369;SDS011;20635;55.812;37.560;2023-08-06T11:48:01;3.42;;;3.13;;
34369;SDS011;20635;55.812;37.560;2023-08-06T11:50:28;3.03;;;2.75;;
34369;SDS011;20635;55.812;37.560;2023-08-06T11:52:56;2.92;;;2.72;;
34369;SDS011;20635;55.812;37.560;2023-08-06T11:55:24;3.25;;;2.95;;
34369;SDS011;20635;55.812;37.560;2023-08-06T11:57:50;3.97;;;2.88;;
34369;SDS011;20635;55.812;37.560;2023-08-06T12:00:17;2.72;;;2.53;;
34369;SDS011;20635;55.812;37.560;2023-08-06T12:05:16;2.67;;;2.47;;
34369;SDS011;20635;55.812;37.560;2023-08-06T12:07:54;2.83;;;2.63;;
34369;SDS011;20635;55.812;37.560;2023-08-06T12:10:22;3.67;;;2.53;;
34369;SDS011;20635;55.812;37.560;2023-08-06T12:12:49;3.25;;;2.70;;
34369;SDS011;20635;55.812;37.560;2023-08-06T12:15:16;2.72;;;2.53;;
34369;SDS011;20635;55.812;37.560;2023-08-06T12:17:41;2.95;;;2.75;;
34369;SDS011;20635;55.812;37.560;2023-08-06T12:20:08;3.20;;;2.78;;
34369;SDS011;20635;55.812;37.560;2023-08-06T12:22:35;2.92;;;2.72;;
34369;SDS011;20635;55.812;37.560;2023-08-06T12:25:04;2.90;;;2.60;;
34369;SDS011;20635;55.812;37.560;2023-08-06T12:27:33;2.97;;;2.67;;
34369;SDS011;20635;55.812;37.560;2023-08-06T12:30:03;3.65;;;2.75;;
34369;SDS011;20635;55.812;37.560;2023-08-06T12:32:30;2.80;;;2.60;;
34369;SDS011;20635;55.812;37.560;2023-08-06T12:34:57;2.70;;;2.50;;
34369;SDS011;20635;55.812;37.560;2023-08-06T12:37:26;2.70;;;2.50;;
34369;SDS011;20635;55.812;37.560;2023-08-06T12:39:52;2.92;;;2.63;;
34369;SDS011;20635;55.812;37.560;2023-08-06T12:42:19;2.92;;;2.72;;
34369;SDS011;20635;55.812;37.560;2023-08-06T12:44:45;2.78;;;2.58;;
34369;SDS011;20635;55.812;37.560;2023-08-06T12:47:14;2.60;;;2.40;;
34369;SDS011;20635;55.812;37.560;2023-08-06T12:49:42;3.10;;;2.88;;
34369;SDS011;20635;55.812;37.560;2023-08-06T12:52:17;3.13;;;2.83;;
34369;SDS011;20635;55.812;37.560;2023-08-06T12:54:45;3.03;;;2.78;;
34369;SDS011;20635;55.812;37.560;2023-08-06T12:57:11;3.03;;;2.38;;
34369;SDS011;20635;55.812;37.560;2023-08-06T12:59:37;2.50;;;2.30;;
34369;SDS011;20635;55.812;37.560;2023-08-06T13:02:03;2.75;;;2.55;;
34369;SDS011;20635;55.812;37.560;2023-08-06T13:04:29;2.50;;;2.30;;
34369;SDS011;20635;55.812;37.560;2023-08-06T13:06:56;2.85;;;2.42;;
34369;SDS011;20635;55.812;37.560;2023-08-06T13:09:22;2.53;;;2.33;;
34369;SDS011;20635;55.812;37.560;2023-08-06T13:11:47;2.80;;;2.60;;
34369;SDS011;20635;55.812;37.560;2023-08-06T13:14:16;2.90;;;2.42;;
34369;SDS011;20635;55.812;37.560;2023-08-06T13:16:42;2.40;;;2.20;;
34369;SDS011;20635;55.812;37.560;2023-08-06T13:19:09;2.65;;;2.45;;
34369;SDS011;20635;55.812;37.560;2023-08-06T13:24:07;2.95;;;2.60;;
34369;SDS011;20635;55.812;37.560;2023-08-06T13:26:34;2.97;;;2.67;;
34369;SDS011;20635;55.812;37.560;2023-08-06T13:29:00;2.88;;;2.67;;
34369;SDS011;20635;55.812;37.560;2023-08-06T13:31:27;3.15;;;2.85;;
34369;SDS011;20635;55.812;37.560;2023-08-06T13:33:54;2.65;;;2.45;;
34369;SDS011;20635;55.812;37.560;2023-08-06T13:36:23;2.58;;;2.38;;
34369;SDS011;20635;55.812;37.560;2023-08-06T13:38:54;2.50;;;2.30;;
34369;SDS011;20635;55.812;37.560;2023-08-06T13:41:25;2.70;;;2.50;;
34369;SDS011;20635;55.812;37.560;2023-08-06T13:43:51;2.50;;;2.30;;
34369;SDS011;20635;55.812;37.560;2023-08-06T13:46:18;2.50;;;2.30;;
34369;SDS011;20635;55.812;37.560;2023-08-06T13:48:45;2.67;;;2.47;;
34369;SDS011;20635;55.812;37.560;2023-08-06T13:51:13;2.78;;;2.40;;
34369;SDS011;20635;55.812;37.560;2023-08-06T13:53:39;2.83;;;2.63;;
34369;SDS011;20635;55.812;37.560;2023-08-06T13:56:06;2.83;;;2.63;;
34369;SDS011;20635;55.812;37.560;2023-08-06T13:58:33;2.97;;;2.70;;
34369;SDS011;20635;55.812;37.560;2023-08-06T14:00:59;2.40;;;2.20;;
34369;SDS011;20635;55.812;37.560;2023-08-06T14:03:26;2.50;;;2.30;;
34369;SDS011;20635;55.812;37.560;2023-08-06T14:05:57;2.55;;;2.35;;
34369;SDS011;20635;55.812;37.560;2023-08-06T14:08:23;2.47;;;2.28;;
34369;SDS011;20635;55.812;37.560;2023-08-06T14:10:50;2.67;;;2.47;;
34369;SDS011;20635;55.812;37.560;2023-08-06T14:13:16;2.72;;;2.20;;
34369;SDS011;20635;55.812;37.560;2023-08-06T14:15:43;2.72;;;2.53;;
34369;SDS011;20635;55.812;37.560;2023-08-06T14:18:15;2.60;;;2.40;;
34369;SDS011;20635;55.812;37.560;2023-08-06T14:20:42;2.65;;;2.45;;
34369;SDS011;20635;55.812;37.560;2023-08-06T14:23:11;2.67;;;2.47;;
34369;SDS011;20635;55.812;37.560;2023-08-06T14:25:38;2.78;;;2.58;;
34369;SDS011;20635;55.812;37.560;2023-08-06T14:28:04;2.33;;;2.13;;
34369;SDS011;20635;55.812;37.560;2023-08-06T14:30:32;2.50;;;2.30;;
34369;SDS011;20635;55.812;37.560;2023-08-06T14:32:59;2.40;;;2.20;;
34369;SDS011;20635;55.812;37.560;2023-08-06T14:35:26;2.42;;;2.22;;
34369;SDS011;20635;55.812;37.560;2023-08-06T14:37:52;2.75;;;2.55;;
34369;SDS011;20635;55.812;37.560;2023-08-06T14:40:18;2.55;;;2.35;;